N4LN KBEC-K46U
Flight info
| Callsign | N4LN |
|---|---|
| Flight time | N/A |
| Altitude | 14000 |
| Route | ZIMEX V73 MUGER/N0184F160 V73 HUT V132 MBW V6 CKW V4 OCS V328 SEYTO |
| Aircraft | AEST/L-SDFGRY/S |
Departure
| Time | 2026-05-01 15:18 |
|---|---|
| Airport | Beech Factory Airport (KBEC) |
Arrival
| Time | N/A |
|---|---|
| Airport | K46U |
| Time | Latitude | Longitude | Altitude | Speed | Heading |
|---|---|---|---|---|---|
| 2026-05-01 15:13 | 37.68934 | -97.21186 | 1391 ft | 0 kts | 89° |
| 2026-05-01 15:14 | 37.68933 | -97.21201 | 1390 ft | 11 kts | 332° |
| 2026-05-01 15:14 | 37.69018 | -97.21234 | 1395 ft | 16 kts | 301° |
| 2026-05-01 15:14 | 37.69066 | -97.21534 | 1399 ft | 17 kts | 281° |
| 2026-05-01 15:15 | 37.69246 | -97.21524 | 1398 ft | 13 kts | 11° |
| 2026-05-01 15:15 | 37.69318 | -97.21514 | 1399 ft | 0 kts | 191° |
| 2026-05-01 15:16 | 37.69280 | -97.21524 | 1398 ft | 34 kts | 192° |
| 2026-05-01 15:17 | 37.68062 | -97.21853 | 1618 ft | 109 kts | 192° |
| 2026-05-01 15:18 | 37.66310 | -97.23613 | 3015 ft | 121 kts | 261° |
| 2026-05-01 15:18 | 37.66265 | -97.24665 | 3515 ft | 120 kts | 270° |
| 2026-05-01 15:19 | 37.66676 | -97.27743 | 4997 ft | 105 kts | 277° |
| 2026-05-01 15:19 | 37.66636 | -97.29720 | 5702 ft | 117 kts | 271° |
| 2026-05-01 15:19 | 37.66577 | -97.30740 | 6098 ft | 117 kts | 271° |
| 2026-05-01 15:20 | 37.66433 | -97.32772 | 6802 ft | 116 kts | 272° |
| 2026-05-01 15:20 | 37.66353 | -97.33782 | 7123 ft | 115 kts | 271° |
| 2026-05-01 15:20 | 37.66273 | -97.34781 | 7456 ft | 114 kts | 278° |
| 2026-05-01 15:21 | 37.66454 | -97.35695 | 7803 ft | 103 kts | 304° |
| 2026-05-01 15:21 | 37.66795 | -97.36457 | 8087 ft | 98 kts | 309° |
| 2026-05-01 15:21 | 37.67156 | -97.37183 | 8313 ft | 98 kts | 309° |
| 2026-05-01 15:21 | 37.67521 | -97.37905 | 8537 ft | 98 kts | 309° |
| 2026-05-01 15:22 | 37.68257 | -97.39385 | 8956 ft | 100 kts | 309° |
| 2026-05-01 15:22 | 37.68621 | -97.40133 | 9157 ft | 100 kts | 309° |
| 2026-05-01 15:22 | 37.68985 | -97.40885 | 9362 ft | 100 kts | 309° |
| 2026-05-01 15:23 | 37.69347 | -97.41637 | 9562 ft | 100 kts | 309° |
| 2026-05-01 15:23 | 37.69709 | -97.42390 | 9742 ft | 100 kts | 309° |
| 2026-05-01 15:23 | 37.70070 | -97.43142 | 9917 ft | 100 kts | 309° |
| 2026-05-01 15:23 | 37.70429 | -97.43893 | 10084 ft | 100 kts | 309° |
| 2026-05-01 15:24 | 37.70789 | -97.44638 | 10237 ft | 99 kts | 309° |
| 2026-05-01 15:24 | 37.71150 | -97.45381 | 10372 ft | 99 kts | 309° |
| 2026-05-01 15:24 | 37.71504 | -97.46116 | 10492 ft | 100 kts | 308° |
| 2026-05-01 15:24 | 37.71863 | -97.46864 | 10642 ft | 99 kts | 308° |
| 2026-05-01 15:25 | 37.72214 | -97.47597 | 10758 ft | 97 kts | 308° |
| 2026-05-01 15:25 | 37.72562 | -97.48324 | 10872 ft | 96 kts | 307° |
| 2026-05-01 15:25 | 37.72909 | -97.49049 | 10980 ft | 96 kts | 307° |
| 2026-05-01 15:25 | 37.73255 | -97.49774 | 11081 ft | 96 kts | 307° |
| 2026-05-01 15:26 | 37.73599 | -97.50494 | 11166 ft | 96 kts | 306° |
| 2026-05-01 15:26 | 37.73942 | -97.51215 | 11261 ft | 95 kts | 306° |
| 2026-05-01 15:26 | 37.74284 | -97.51931 | 11354 ft | 95 kts | 306° |
| 2026-05-01 15:26 | 37.74626 | -97.52644 | 11438 ft | 95 kts | 306° |
| 2026-05-01 15:27 | 37.74965 | -97.53356 | 11518 ft | 94 kts | 306° |
| 2026-05-01 15:27 | 37.75301 | -97.54062 | 11593 ft | 94 kts | 305° |
| 2026-05-01 15:27 | 37.75637 | -97.54767 | 11665 ft | 93 kts | 305° |
| 2026-05-01 15:28 | 37.76297 | -97.56154 | 11793 ft | 92 kts | 305° |
| 2026-05-01 15:28 | 37.76629 | -97.56847 | 11854 ft | 92 kts | 304° |
| 2026-05-01 15:28 | 37.76956 | -97.57535 | 11897 ft | 91 kts | 304° |
| 2026-05-01 15:29 | 37.77611 | -97.58908 | 12009 ft | 92 kts | 304° |
| 2026-05-01 15:29 | 37.77940 | -97.59599 | 12054 ft | 92 kts | 304° |
| 2026-05-01 15:29 | 37.78594 | -97.60977 | 12145 ft | 91 kts | 303° |
| 2026-05-01 15:30 | 37.79245 | -97.62345 | 12222 ft | 90 kts | 303° |
| 2026-05-01 15:31 | 37.80523 | -97.65034 | 12351 ft | 89 kts | 303° |
| 2026-05-01 15:31 | 37.81159 | -97.66371 | 12407 ft | 88 kts | 303° |
| 2026-05-01 15:32 | 37.81789 | -97.67698 | 12453 ft | 88 kts | 303° |
| 2026-05-01 15:32 | 37.82423 | -97.69033 | 12547 ft | 90 kts | 303° |
| 2026-05-01 15:33 | 37.83532 | -97.70880 | 12825 ft | 88 kts | 311° |
| 2026-05-01 15:34 | 37.84776 | -97.72617 | 13001 ft | 95 kts | 310° |